Crystal, Colorado
Current Conditions -  °F | °C
As of 1:58 AM on Wednesday 22 Oct 2014 (Local Time) from K5SM Reporting Station
Thunderstorm Thunderstorm  
Wind Chill: 29°   Ceiling: 100
Heat Index: 34°   Visibility: 0mi
Dew Point: 34°   Wind: 6mph
Humidity: 100%   Direction: 310°NW
Pressure: 30.29"   Gusts: NA
Location:  39.2397°N, 107.215°W
Report Text: K5SM 220758Z AUTO 31005KT M1/4SM VCTS FG OVC001 01/01 A3029 RMK AO2 LTG DSNT S THRU W
Loading
Personal Weather Stations






























Interactive Weather Map
Tropical Storm Tracking
New forecast layout! Learn more

10-Day Weather Forecast

Advertisements
Track Severe Weather on mobile